Piper Inness — WDC3984 — position and weather

sailwx.info

Track history (hours):
 
Tides and Currents Weather Stations Pressure Air Temp Water Temp Dewpoint Dewpoint Depression Visibility Wind Speed Wind Dir Waves Ship Positions

Piper Inness

Owner: Foss Maritime Co, Seattle, WA. More information available from US FCC via Universal Licensing System and Coast Guard Vessel Documentation Center.

Last reported at 2017-Mar-30 02:34 UTC. Time now 2017-Mar-30 02:49 UTC.
Position N 33°02' W 117°48'.

; draft 2 m.

Type: Other ship. MMSI: 367017440.

Date/timePositionNaut miles runAvg speedWind from/ knotsBaromVisibWave heightAir tempDewpointWater temp
2017-Mar-30 02:34N 33°02' W 117°48'2 2.1
2017-Mar-30 01:33N 33°00' W 117°46'1 0.8
2017-Mar-30 00:33N 33°01' W 117°47'1 0.6
2017-Mar-29 23:33N 33°00' W 117°47'2 2.1
2017-Mar-29 22:33N 32°59' W 117°45'1 0.7
2017-Mar-29 21:33N 32°59' W 117°44'1 0.9
2017-Mar-29 20:33N 32°58' W 117°43'1 0.6
2017-Mar-29 19:34N 32°58' W 117°44'1 0.9
2017-Mar-29 18:33N 32°57' W 117°43'1 0.7
2017-Mar-29 17:33N 32°56' W 117°43'1 0.9
2017-Mar-29 16:34N 32°56' W 117°44'2 2.2
2017-Mar-29 15:33N 32°54' W 117°43'2 2.1
2017-Mar-29 14:34N 32°52' W 117°42'1 0.5
2017-Mar-29 13:34N 32°52' W 117°42'2 1.5
2017-Mar-29 12:34N 32°52' W 117°44'0 0.4
2017-Mar-29 11:34N 32°52' W 117°43'2 2.4
2017-Mar-29 10:33N 32°53' W 117°46'1 0.6
2017-Mar-29 09:34N 32°54' W 117°47'1 1.0
2017-Mar-29 08:33N 32°55' W 117°47'1 1.0
2017-Mar-29 07:33N 32°55' W 117°47'0 0.4
2017-Mar-29 06:33N 32°55' W 117°48'2 2.4
2017-Mar-29 05:33N 32°58' W 117°48'4 3.8
2017-Mar-29 04:33N 33°01' W 117°50'4 4.4
2017-Mar-29 03:34N 33°05' W 117°53'4 4.0
2017-Mar-29 02:33N 33°08' W 117°56'5 4.6
2017-Mar-29 01:34N 33°11' W 117°60'1716.9
2017-Mar-29 00:34N 33°28' W 118°03'1717.2
2017-Mar-28 23:33N 33°44' W 118°11'3 2.8
2017-Mar-28 22:32N 33°46' W 118°13'0 0.0
2017-Mar-28 21:33N 33°46' W 118°13'0 0.0
2017-Mar-28 20:33N 33°46' W 118°13'0 0.0
2017-Mar-28 19:33N 33°46' W 118°13'0 0.0
2017-Mar-28 18:33N 33°46' W 118°13'0 0.0
2017-Mar-28 17:31N 33°46' W 118°13'0 0.0
2017-Mar-28 16:21N 33°46' W 118°13'0 0.0
2017-Mar-28 14:33N 33°46' W 118°13'0 0.0
2017-Mar-28 13:18N 33°46' W 118°13'0 0.0
2017-Mar-28 12:30N 33°46' W 118°13'0 0.0
2017-Mar-28 11:33N 33°46' W 118°13'0 0.0
2017-Mar-28 02:33N 33°46' W 118°13'0 0.0
2017-Mar-28 01:33N 33°46' W 118°13'0 0.4
2017-Mar-28 00:32N 33°46' W 118°13'1313.2
2017-Mar-27 23:33N 33°35' W 118°06'1716.6
2017-Mar-27 22:33N 33°20' W 117°58'1716.8
2017-Mar-27 21:33N 33°05' W 117°49'1 0.8
2017-Mar-27 20:34N 33°05' W 117°50'1 1.2
2017-Mar-27 19:34N 33°04' W 117°50'2 2.4
2017-Mar-27 18:33N 33°02' W 117°49'2 1.8
2017-Mar-27 17:34N 32°60' W 117°49'2 2.3
2017-Mar-27 16:33N 32°58' W 117°49'3 2.9
2017-Mar-27 15:33N 32°55' W 117°47'2 1.7
2017-Mar-27 14:33N 32°54' W 117°48'0 0.3
2017-Mar-27 13:33N 32°54' W 117°47'3 3.4
2017-Mar-27 12:33N 32°54' W 117°43'0 0.2
2017-Mar-27 11:33N 32°54' W 117°43'0 0.4
2017-Mar-27 10:34N 32°54' W 117°44'1 0.5
2017-Mar-27 09:33N 32°55' W 117°44'1 0.6
2017-Mar-27 08:33N 32°55' W 117°44'2 1.6
2017-Mar-27 07:33N 32°56' W 117°46'1 1.5
2017-Mar-27 06:33N 32°56' W 117°44'2 2.2
2017-Mar-27 05:33N 32°57' W 117°47'1 0.6
2017-Mar-27 04:33N 32°58' W 117°46'3 2.5
2017-Mar-27 03:34N 32°59' W 117°49'1 1.1
2017-Mar-27 02:33N 32°59' W 117°47'3 3.5
2017-Mar-27 01:33N 33°01' W 117°50'3 3.5
2017-Mar-27 00:33N 33°04' W 117°53'3 3.4
2017-Mar-26 23:33N 33°07' W 117°55'3 3.0
2017-Mar-26 22:34N 33°10' W 117°55'1 0.6
2017-Mar-26 21:33N 33°10' W 117°56'1 1.4
2017-Mar-26 20:34N 33°09' W 117°55'2 1.9
2017-Mar-26 19:34N 33°09' W 117°52'3 2.9
2017-Mar-26 18:33N 33°10' W 117°56'1716.6
2017-Mar-26 17:33N 33°26' W 118°03'22 0.6
2017-Mar-25 06:19N 33°46' W 118°13'0 0.0
2017-Mar-25 03:26N 33°46' W 118°13'0 0.0
2017-Mar-25 02:16N 33°46' W 118°13'0 0.0
2017-Mar-25 01:33N 33°46' W 118°13'0 0.0
2017-Mar-25 00:33N 33°46' W 118°13'0 0.0
2017-Mar-24 23:33N 33°46' W 118°13'0 0.0
2017-Mar-24 22:32N 33°46' W 118°13'0 0.0
2017-Mar-24 21:33N 33°46' W 118°13'0 0.0
2017-Mar-23 21:24N 33°46' W 118°13'0 0.0
2017-Mar-23 20:29N 33°46' W 118°13'22 1.2
2017-Mar-23 02:31N 33°26' W 118°02'1617.3
2017-Mar-23 01:33N 33°11' W 117°54'3 2.9
2017-Mar-23 00:33N 33°08' W 117°54'2 1.9
2017-Mar-22 23:33N 33°08' W 117°52'2 1.7
2017-Mar-22 22:34N 33°07' W 117°51'1 1.1
2017-Mar-22 21:33N 33°06' W 117°51'3 3.4
2017-Mar-22 20:33N 33°02' W 117°50'1 0.9
2017-Mar-22 19:33N 33°02' W 117°49'1 1.3
2017-Mar-22 18:33N 33°00' W 117°49'2 2.1
2017-Mar-22 17:33N 32°58' W 117°49'1 1.3
2017-Mar-22 16:33N 32°57' W 117°49'1 1.3
2017-Mar-22 15:33N 32°56' W 117°48'1 1.2
2017-Mar-22 14:33N 32°55' W 117°47'3 2.6
2017-Mar-22 13:33N 32°53' W 117°45'2 1.8
2017-Mar-22 12:33N 32°54' W 117°43'2 1.8
2017-Mar-22 11:33N 32°55' W 117°45'0 0.4
2017-Mar-22 10:33N 32°54' W 117°45'1 0.9
2017-Mar-22 09:33N 32°55' W 117°45'1 1.0
2017-Mar-22 08:33N 32°56' W 117°46'0 0.4
2017-Mar-22 07:33N 32°56' W 117°46'1 0.7
2017-Mar-22 06:33N 32°55' W 117°46'0 0.5
2017-Mar-22 05:33N 32°55' W 117°47'0 0.2
2017-Mar-22 04:33N 32°55' W 117°47'3 3.1
2017-Mar-22 03:33N 32°58' W 117°47'2 1.8
2017-Mar-22 02:33N 32°60' W 117°47'1 0.9
2017-Mar-22 01:33N 32°59' W 117°48'3 3.2
2017-Mar-22 00:33N 33°02' W 117°49'1 0.7
2017-Mar-21 23:33N 33°02' W 117°50'3 3.2
2017-Mar-21 22:33N 33°04' W 117°52'5 4.7
2017-Mar-21 21:33N 33°08' W 117°55'6 5.8
2017-Mar-21 20:34N 33°12' W 117°60'1717.1
2017-Mar-21 19:33N 33°29' W 118°04'19 0.6
2017-Mar-20 12:06N 33°46' W 118°13'0 0.0
2017-Mar-20 03:27N 33°46' W 118°13'  
Track history (hours):
 
Tides and Currents Weather Stations Pressure Air Temp Water Temp Dewpoint Dewpoint Depression Visibility Wind Speed Wind Dir Waves Ship Positions

Piper Inness

Owner: Foss Maritime Co, Seattle, WA. More information available from US FCC via Universal Licensing System and Coast Guard Vessel Documentation Center.

Last reported at 2017-Mar-30 02:34 UTC. Time now 2017-Mar-30 02:49 UTC.
Position N 33°02' W 117°48'.

; draft 2 m.

Type: Other ship. MMSI: 367017440.

Date/timePositionNaut miles runAvg speedWind from/ knotsBaromVisibWave heightAir tempDewpointWater temp
2017-Mar-30 02:34N 33°02' W 117°48'2 2.1
2017-Mar-30 01:33N 33°00' W 117°46'1 0.8
2017-Mar-30 00:33N 33°01' W 117°47'1 0.6
2017-Mar-29 23:33N 33°00' W 117°47'2 2.1
2017-Mar-29 22:33N 32°59' W 117°45'1 0.7
2017-Mar-29 21:33N 32°59' W 117°44'1 0.9
2017-Mar-29 20:33N 32°58' W 117°43'1 0.6
2017-Mar-29 19:34N 32°58' W 117°44'1 0.9
2017-Mar-29 18:33N 32°57' W 117°43'1 0.7
2017-Mar-29 17:33N 32°56' W 117°43'1 0.9
2017-Mar-29 16:34N 32°56' W 117°44'2 2.2
2017-Mar-29 15:33N 32°54' W 117°43'2 2.1
2017-Mar-29 14:34N 32°52' W 117°42'1 0.5
2017-Mar-29 13:34N 32°52' W 117°42'2 1.5
2017-Mar-29 12:34N 32°52' W 117°44'0 0.4
2017-Mar-29 11:34N 32°52' W 117°43'2 2.4
2017-Mar-29 10:33N 32°53' W 117°46'1 0.6
2017-Mar-29 09:34N 32°54' W 117°47'1 1.0
2017-Mar-29 08:33N 32°55' W 117°47'1 1.0
2017-Mar-29 07:33N 32°55' W 117°47'0 0.4
2017-Mar-29 06:33N 32°55' W 117°48'2 2.4
2017-Mar-29 05:33N 32°58' W 117°48'4 3.8
2017-Mar-29 04:33N 33°01' W 117°50'4 4.4
2017-Mar-29 03:34N 33°05' W 117°53'4 4.0
2017-Mar-29 02:33N 33°08' W 117°56'5 4.6
2017-Mar-29 01:34N 33°11' W 117°60'1716.9
2017-Mar-29 00:34N 33°28' W 118°03'1717.2
2017-Mar-28 23:33N 33°44' W 118°11'3 2.8
2017-Mar-28 22:32N 33°46' W 118°13'0 0.0
2017-Mar-28 21:33N 33°46' W 118°13'0 0.0
2017-Mar-28 20:33N 33°46' W 118°13'0 0.0
2017-Mar-28 19:33N 33°46' W 118°13'0 0.0
2017-Mar-28 18:33N 33°46' W 118°13'0 0.0
2017-Mar-28 17:31N 33°46' W 118°13'0 0.0
2017-Mar-28 16:21N 33°46' W 118°13'0 0.0
2017-Mar-28 14:33N 33°46' W 118°13'0 0.0
2017-Mar-28 13:18N 33°46' W 118°13'0 0.0
2017-Mar-28 12:30N 33°46' W 118°13'0 0.0
2017-Mar-28 11:33N 33°46' W 118°13'0 0.0
2017-Mar-28 02:33N 33°46' W 118°13'0 0.0
2017-Mar-28 01:33N 33°46' W 118°13'0 0.4
2017-Mar-28 00:32N 33°46' W 118°13'1313.2
2017-Mar-27 23:33N 33°35' W 118°06'1716.6
2017-Mar-27 22:33N 33°20' W 117°58'1716.8
2017-Mar-27 21:33N 33°05' W 117°49'1 0.8
2017-Mar-27 20:34N 33°05' W 117°50'1 1.2
2017-Mar-27 19:34N 33°04' W 117°50'2 2.4
2017-Mar-27 18:33N 33°02' W 117°49'2 1.8
2017-Mar-27 17:34N 32°60' W 117°49'2 2.3
2017-Mar-27 16:33N 32°58' W 117°49'3 2.9
2017-Mar-27 15:33N 32°55' W 117°47'2 1.7
2017-Mar-27 14:33N 32°54' W 117°48'0 0.3
2017-Mar-27 13:33N 32°54' W 117°47'3 3.4
2017-Mar-27 12:33N 32°54' W 117°43'0 0.2
2017-Mar-27 11:33N 32°54' W 117°43'0 0.4
2017-Mar-27 10:34N 32°54' W 117°44'1 0.5
2017-Mar-27 09:33N 32°55' W 117°44'1 0.6
2017-Mar-27 08:33N 32°55' W 117°44'2 1.6
2017-Mar-27 07:33N 32°56' W 117°46'1 1.5
2017-Mar-27 06:33N 32°56' W 117°44'2 2.2
2017-Mar-27 05:33N 32°57' W 117°47'1 0.6
2017-Mar-27 04:33N 32°58' W 117°46'3 2.5
2017-Mar-27 03:34N 32°59' W 117°49'1 1.1
2017-Mar-27 02:33N 32°59' W 117°47'3 3.5
2017-Mar-27 01:33N 33°01' W 117°50'3 3.5
2017-Mar-27 00:33N 33°04' W 117°53'3 3.4
2017-Mar-26 23:33N 33°07' W 117°55'3 3.0
2017-Mar-26 22:34N 33°10' W 117°55'1 0.6
2017-Mar-26 21:33N 33°10' W 117°56'1 1.4
2017-Mar-26 20:34N 33°09' W 117°55'2 1.9
2017-Mar-26 19:34N 33°09' W 117°52'3 2.9
2017-Mar-26 18:33N 33°10' W 117°56'1716.6
2017-Mar-26 17:33N 33°26' W 118°03'22 0.6
2017-Mar-25 06:19N 33°46' W 118°13'0 0.0
2017-Mar-25 03:26N 33°46' W 118°13'0 0.0
2017-Mar-25 02:16N 33°46' W 118°13'0 0.0
2017-Mar-25 01:33N 33°46' W 118°13'0 0.0
2017-Mar-25 00:33N 33°46' W 118°13'0 0.0
2017-Mar-24 23:33N 33°46' W 118°13'0 0.0
2017-Mar-24 22:32N 33°46' W 118°13'0 0.0
2017-Mar-24 21:33N 33°46' W 118°13'0 0.0
2017-Mar-23 21:24N 33°46' W 118°13'0 0.0
2017-Mar-23 20:29N 33°46' W 118°13'22 1.2
2017-Mar-23 02:31N 33°26' W 118°02'1617.3
2017-Mar-23 01:33N 33°11' W 117°54'3 2.9
2017-Mar-23 00:33N 33°08' W 117°54'2 1.9
2017-Mar-22 23:33N 33°08' W 117°52'2 1.7
2017-Mar-22 22:34N 33°07' W 117°51'1 1.1
2017-Mar-22 21:33N 33°06' W 117°51'3 3.4
2017-Mar-22 20:33N 33°02' W 117°50'1 0.9
2017-Mar-22 19:33N 33°02' W 117°49'1 1.3
2017-Mar-22 18:33N 33°00' W 117°49'2 2.1
2017-Mar-22 17:33N 32°58' W 117°49'1 1.3
2017-Mar-22 16:33N 32°57' W 117°49'1 1.3
2017-Mar-22 15:33N 32°56' W 117°48'1 1.2
2017-Mar-22 14:33N 32°55' W 117°47'3 2.6
2017-Mar-22 13:33N 32°53' W 117°45'2 1.8
2017-Mar-22 12:33N 32°54' W 117°43'2 1.8
2017-Mar-22 11:33N 32°55' W 117°45'0 0.4
2017-Mar-22 10:33N 32°54' W 117°45'1 0.9
2017-Mar-22 09:33N 32°55' W 117°45'1 1.0
2017-Mar-22 08:33N 32°56' W 117°46'0 0.4
2017-Mar-22 07:33N 32°56' W 117°46'1 0.7
2017-Mar-22 06:33N 32°55' W 117°46'0 0.5
2017-Mar-22 05:33N 32°55' W 117°47'0 0.2
2017-Mar-22 04:33N 32°55' W 117°47'3 3.1
2017-Mar-22 03:33N 32°58' W 117°47'2 1.8
2017-Mar-22 02:33N 32°60' W 117°47'1 0.9
2017-Mar-22 01:33N 32°59' W 117°48'3 3.2
2017-Mar-22 00:33N 33°02' W 117°49'1 0.7
2017-Mar-21 23:33N 33°02' W 117°50'3 3.2
2017-Mar-21 22:33N 33°04' W 117°52'5 4.7
2017-Mar-21 21:33N 33°08' W 117°55'6 5.8
2017-Mar-21 20:34N 33°12' W 117°60'1717.1
2017-Mar-21 19:33N 33°29' W 118°04'19 0.6
2017-Mar-20 12:06N 33°46' W 118°13'0 0.0
2017-Mar-20 03:27N 33°46' W 118°13'  

Dump ship's entire track history